createdAt,value
2019-06-08T00:00:15.268Z,22.73
2019-06-08T00:02:42.960Z,22.50
2019-06-08T00:05:12.601Z,19.40
2019-06-08T00:07:39.660Z,19.85
2019-06-08T00:10:06.873Z,21.42
2019-06-08T00:12:33.645Z,21.68
2019-06-08T00:15:00.477Z,24.02
2019-06-08T00:17:37.731Z,22.17
2019-06-08T00:19:55.783Z,20.30
2019-06-08T00:22:22.438Z,20.50
2019-06-08T00:24:49.181Z,20.90
2019-06-08T00:27:16.035Z,22.13
2019-06-08T00:29:42.696Z,22.60
2019-06-08T00:32:09.361Z,24.37
2019-06-08T00:34:35.977Z,21.00
2019-06-08T00:37:02.880Z,20.52
2019-06-08T00:39:29.474Z,22.55
2019-06-08T00:41:56.071Z,22.25
2019-06-08T00:44:26.293Z,21.85
2019-06-08T00:46:52.903Z,21.17
2019-06-08T00:49:22.614Z,18.20
2019-06-08T00:51:49.552Z,20.40
2019-06-08T00:54:17.348Z,22.05
2019-06-08T00:56:44.227Z,22.07
2019-06-08T00:59:10.987Z,23.07
2019-06-08T01:01:37.707Z,19.60
2019-06-08T01:04:04.262Z,19.50
2019-06-08T01:06:30.910Z,20.60
2019-06-08T01:08:58.372Z,20.25
2019-06-08T01:11:25.220Z,22.55
2019-06-08T01:13:52.273Z,19.10
2019-06-08T01:16:18.974Z,20.72
2019-06-08T01:18:45.723Z,21.62
2019-06-08T01:21:12.284Z,23.20
2019-06-08T01:23:39.000Z,20.88
2019-06-08T01:26:05.563Z,20.80
2019-06-08T01:28:32.295Z,20.65
2019-06-08T01:30:59.109Z,21.90
2019-06-08T01:33:26.567Z,23.07
2019-06-08T01:35:53.442Z,22.65
2019-06-08T01:38:21.046Z,19.32
2019-06-08T01:40:48.191Z,20.27
2019-06-08T01:43:14.853Z,22.55
2019-06-08T01:45:41.602Z,25.05
2019-06-08T01:48:19.346Z,23.50
2019-06-08T01:50:36.998Z,21.70
2019-06-08T01:53:03.843Z,19.45
2019-06-08T01:55:31.172Z,19.70
2019-06-08T01:57:58.048Z,21.65
2019-06-08T02:00:32.556Z,22.60
2019-06-08T02:02:55.237Z,21.55
2019-06-08T02:05:22.238Z,19.80
2019-06-08T02:07:49.031Z,19.37
2019-06-08T02:10:16.827Z,20.48
2019-06-08T02:12:43.549Z,21.55
2019-06-08T02:15:10.870Z,20.80
2019-06-08T02:17:37.567Z,20.20
2019-06-08T02:20:06.591Z,17.98
2019-06-08T02:22:33.431Z,19.67
2019-06-08T02:25:00.070Z,20.68
2019-06-08T02:27:27.253Z,21.62
2019-06-08T02:29:53.991Z,18.92
2019-06-08T02:32:20.730Z,18.12
2019-06-08T02:34:47.434Z,20.50
2019-06-08T02:37:13.925Z,20.75
2019-06-08T02:39:40.797Z,21.23
2019-06-08T02:42:07.561Z,19.95
2019-06-08T02:44:34.487Z,18.30
2019-06-08T02:47:01.395Z,20.62
2019-06-08T02:49:29.090Z,20.95
2019-06-08T02:51:56.247Z,21.62
2019-06-08T02:54:22.952Z,20.20
2019-06-08T02:56:52.958Z,18.27
2019-06-08T02:59:21.484Z,19.07
2019-06-08T03:01:49.966Z,20.43
2019-06-08T03:04:17.989Z,21.23
2019-06-08T03:06:45.537Z,22.45
2019-06-08T03:09:12.174Z,18.37
2019-06-08T03:14:39.613Z,19.87
2019-06-08T03:17:07.106Z,21.30
2019-06-08T03:19:35.543Z,22.50
2019-06-08T03:22:02.383Z,18.05
2019-06-08T03:24:29.189Z,18.90
2019-06-08T03:26:55.913Z,20.40
2019-06-08T03:29:22.545Z,20.40
2019-06-08T03:31:55.926Z,20.77
2019-06-08T03:34:18.043Z,20.32
2019-06-08T03:36:54.896Z,19.55
2019-06-08T03:39:13.725Z,20.52
2019-06-08T03:41:42.128Z,21.23
2019-06-08T03:44:08.811Z,21.93
2019-06-08T03:46:36.389Z,21.62
2019-06-08T03:49:03.388Z,19.75
2019-06-08T03:51:34.888Z,21.65
2019-06-08T03:53:58.871Z,24.12
2019-06-08T03:56:25.433Z,23.75
2019-06-08T03:58:52.062Z,23.15
2019-06-08T04:01:18.803Z,20.70
2019-06-08T04:03:46.243Z,20.15
2019-06-08T04:06:13.128Z,23.95
2019-06-08T04:08:40.827Z,25.40
2019-06-08T04:11:08.194Z,30.90
2019-06-08T04:13:34.842Z,39.63
2019-06-08T04:16:01.423Z,34.35
2019-06-08T04:18:28.018Z,121.97
2019-06-08T04:20:54.864Z,85.65
2019-06-08T04:23:22.988Z,72.00
2019-06-08T04:25:50.671Z,43.78
2019-06-08T04:28:17.533Z,57.78
2019-06-08T04:30:45.375Z,109.83
2019-06-08T04:33:12.856Z,42.25
2019-06-08T04:35:40.178Z,41.02
2019-06-08T04:38:07.638Z,33.05
2019-06-08T04:40:34.289Z,33.38
2019-06-08T04:43:00.889Z,35.73
2019-06-08T04:45:27.690Z,36.42
2019-06-08T04:47:54.219Z,38.25
2019-06-08T04:50:23.727Z,37.63
2019-06-08T04:52:49.886Z,32.15
2019-06-08T04:55:16.935Z,28.62
2019-06-08T04:57:45.405Z,33.02
2019-06-08T05:00:13.718Z,34.75
2019-06-08T05:02:42.234Z,34.95
2019-06-08T05:05:09.680Z,34.65
2019-06-08T05:07:36.264Z,31.27
2019-06-08T05:10:08.202Z,105.32
2019-06-08T05:12:34.784Z,60.15
2019-06-08T05:15:01.618Z,66.62
2019-06-08T05:17:28.148Z,76.87
2019-06-08T05:19:54.697Z,37.83
2019-06-08T05:22:21.275Z,33.83
2019-06-08T05:24:49.858Z,38.85
2019-06-08T05:27:16.877Z,42.08
2019-06-08T05:29:43.492Z,69.35
2019-06-08T05:32:10.047Z,44.58
2019-06-08T05:34:36.594Z,41.13
2019-06-08T05:37:03.433Z,37.13
2019-06-08T05:39:30.054Z,54.33
2019-06-08T05:41:56.774Z,30.68
2019-06-08T05:44:23.365Z,36.30
2019-06-08T05:46:50.459Z,29.23
2019-06-08T05:49:16.995Z,26.68
2019-06-08T05:51:43.793Z,25.97
2019-06-08T05:54:10.450Z,27.82
2019-06-08T05:56:39.733Z,27.02
2019-06-08T05:59:07.639Z,57.08
2019-06-08T06:01:34.131Z,31.80
2019-06-08T06:04:00.815Z,28.73
2019-06-08T06:06:27.457Z,26.57
2019-06-08T06:08:54.189Z,26.65
2019-06-08T06:11:20.737Z,27.30
2019-06-08T06:13:47.493Z,24.47
2019-06-08T06:16:13.999Z,26.20
2019-06-08T06:18:40.987Z,27.27
2019-06-08T06:21:11.753Z,24.98
2019-06-08T06:23:36.289Z,23.92
2019-06-08T06:26:03.102Z,24.55
2019-06-08T06:28:29.723Z,22.40
2019-06-08T06:30:56.197Z,25.40
2019-06-08T06:33:22.664Z,22.00
2019-06-08T06:35:49.959Z,22.17
2019-06-08T06:38:16.924Z,21.05
2019-06-08T06:40:43.990Z,23.00
2019-06-08T06:43:10.817Z,18.35
2019-06-08T06:45:37.630Z,21.02
2019-06-08T06:48:04.380Z,17.27
2019-06-08T06:50:32.859Z,15.43
2019-06-08T06:53:00.182Z,14.73
2019-06-08T06:55:26.822Z,14.65
2019-06-08T06:57:53.643Z,12.85
2019-06-08T07:00:31.568Z,12.93
2019-06-08T07:02:59.802Z,11.40
2019-06-08T07:05:26.468Z,11.18
2019-06-08T07:07:54.410Z,11.25
2019-06-08T07:10:21.630Z,9.85
2019-06-08T07:12:49.111Z,13.25
2019-06-08T07:15:25.908Z,15.48
2019-06-08T07:17:53.547Z,9.00
2019-06-08T07:20:21.112Z,8.53
2019-06-08T07:22:48.117Z,11.80
2019-06-08T07:25:15.141Z,9.70
2019-06-08T07:27:42.005Z,8.28
2019-06-08T07:30:08.968Z,13.85
2019-06-08T07:32:35.768Z,9.83
2019-06-08T07:35:05.651Z,11.12
2019-06-08T07:37:32.542Z,16.42
2019-06-08T07:40:00.223Z,6.28
2019-06-08T07:42:27.207Z,5.78
2019-06-08T07:44:54.825Z,8.63
2019-06-08T07:47:21.769Z,7.40
2019-06-08T07:49:49.325Z,5.12
2019-06-08T07:52:16.030Z,5.17
2019-06-08T07:54:42.502Z,7.70
2019-06-08T07:57:09.208Z,6.35
2019-06-08T07:59:35.851Z,5.10
2019-06-08T08:02:02.602Z,14.03
2019-06-08T08:04:32.346Z,37.10
2019-06-08T08:06:58.911Z,6.90
2019-06-08T08:09:25.571Z,5.15
2019-06-08T08:11:55.243Z,5.10
2019-06-08T08:14:21.856Z,4.10
2019-06-08T08:16:48.959Z,4.85
2019-06-08T08:19:15.702Z,6.62
2019-06-08T08:21:45.129Z,5.30
2019-06-08T08:24:11.689Z,8.10
2019-06-08T08:26:39.149Z,9.18
2019-06-08T08:29:08.354Z,6.08
2019-06-08T08:31:34.534Z,8.83
2019-06-08T08:34:05.629Z,17.05
2019-06-08T08:36:33.146Z,12.23
2019-06-08T08:39:00.615Z,5.78
2019-06-08T08:41:27.944Z,7.55
2019-06-08T08:43:58.395Z,5.75
2019-06-08T08:46:23.912Z,6.87
2019-06-08T08:48:51.366Z,4.50
2019-06-08T08:51:20.664Z,14.38
2019-06-08T08:53:48.193Z,5.70
2019-06-08T08:56:18.173Z,4.80
2019-06-08T08:58:44.606Z,7.80
2019-06-08T09:01:11.126Z,4.83
2019-06-08T09:03:39.608Z,5.75
2019-06-08T09:06:08.519Z,4.80
2019-06-08T09:08:34.557Z,12.98
2019-06-08T09:11:03.592Z,7.37
2019-06-08T09:13:31.536Z,7.28
2019-06-08T09:16:00.742Z,6.20
2019-06-08T09:18:28.586Z,9.20
2019-06-08T09:20:58.255Z,6.05
2019-06-08T09:23:23.652Z,9.90
2019-06-08T09:25:53.594Z,4.92
2019-06-08T09:28:19.029Z,9.25
2019-06-08T09:30:48.242Z,7.62
2019-06-08T09:33:14.188Z,14.90
2019-06-08T09:35:40.821Z,8.15
2019-06-08T09:38:08.578Z,6.20
2019-06-08T09:40:38.400Z,10.48
2019-06-08T09:43:12.204Z,11.10
2019-06-08T09:45:33.441Z,21.52
2019-06-08T09:48:02.601Z,8.73
2019-06-08T09:50:28.538Z,27.98
2019-06-08T09:53:10.045Z,7.33
2019-06-08T09:55:23.609Z,10.00
2019-06-08T09:57:50.207Z,18.17
2019-06-08T10:00:21.331Z,9.23
2019-06-08T10:02:47.879Z,6.40
2019-06-08T10:05:14.751Z,6.65
2019-06-08T10:07:41.481Z,15.05
2019-06-08T10:10:09.814Z,11.85
2019-06-08T10:12:37.821Z,19.23
2019-06-08T10:15:08.034Z,7.40
2019-06-08T10:17:34.637Z,5.33
2019-06-08T10:20:03.419Z,11.75
2019-06-08T10:22:29.818Z,8.65
2019-06-08T10:24:58.050Z,12.23
2019-06-08T10:27:24.844Z,9.33
2019-06-08T10:29:51.516Z,6.50
2019-06-08T10:32:19.928Z,7.92
2019-06-08T10:34:48.139Z,9.88
2019-06-08T10:37:15.068Z,20.95
2019-06-08T10:39:41.969Z,31.52
2019-06-08T10:42:10.112Z,19.42
2019-06-08T10:44:38.172Z,5.80
2019-06-08T10:47:06.754Z,6.72
2019-06-08T10:49:33.785Z,6.10
2019-06-08T10:52:02.158Z,7.05
2019-06-08T10:54:28.760Z,5.05
2019-06-08T10:56:55.372Z,8.68
2019-06-08T10:59:21.948Z,4.75
2019-06-08T11:01:48.673Z,4.95
2019-06-08T11:04:15.405Z,5.45
2019-06-08T11:06:42.053Z,8.65
2019-06-08T11:09:14.337Z,5.37
2019-06-08T11:11:38.379Z,5.60
2019-06-08T11:14:07.934Z,5.67
2019-06-08T11:16:34.641Z,5.15
2019-06-08T11:19:03.002Z,4.92
2019-06-08T11:21:29.921Z,6.08
2019-06-08T11:24:10.418Z,7.60
2019-06-08T11:26:25.345Z,5.53
2019-06-08T11:28:52.244Z,5.00
2019-06-08T11:31:19.868Z,5.28
2019-06-08T11:33:48.832Z,4.33
2019-06-08T11:36:15.488Z,6.00
2019-06-08T11:38:44.418Z,5.97
2019-06-08T11:41:13.529Z,7.45
2019-06-08T11:43:39.967Z,5.65
2019-06-08T11:46:06.763Z,6.67
2019-06-08T11:48:33.593Z,6.12
2019-06-08T11:51:00.600Z,5.05
2019-06-08T11:53:28.829Z,4.80
2019-06-08T11:55:58.600Z,8.08
2019-06-08T11:58:28.278Z,4.83
2019-06-08T12:01:01.783Z,6.12
2019-06-08T12:05:58.338Z,5.40
2019-06-08T12:08:28.185Z,7.53
2019-06-08T12:10:54.208Z,8.80
2019-06-08T12:13:20.966Z,7.70
2019-06-08T12:15:48.841Z,6.78
2019-06-08T12:18:18.147Z,6.03
2019-06-08T12:20:45.216Z,5.35
2019-06-08T12:23:12.105Z,8.75
2019-06-08T12:25:38.709Z,6.00
2019-06-08T12:28:06.431Z,4.60
2019-06-08T12:30:33.520Z,5.30
2019-06-08T12:33:00.195Z,4.97
2019-06-08T12:35:28.361Z,4.78
2019-06-08T12:37:57.936Z,5.12
2019-06-08T12:40:23.721Z,6.33
2019-06-08T12:42:50.491Z,5.17
2019-06-08T12:45:19.974Z,5.22
2019-06-08T12:47:47.882Z,4.97
2019-06-08T12:50:15.343Z,5.17
2019-06-08T12:52:43.345Z,4.95
2019-06-08T12:55:16.450Z,5.05
2019-06-08T12:57:39.915Z,4.92
2019-06-08T13:00:08.458Z,5.92
2019-06-08T13:02:39.336Z,6.28
2019-06-08T13:05:10.723Z,5.95
2019-06-08T13:07:38.574Z,6.20
2019-06-08T13:10:05.884Z,5.70
2019-06-08T13:12:32.769Z,4.83
2019-06-08T13:14:59.440Z,4.50
2019-06-08T13:17:27.987Z,5.72
2019-06-08T13:19:58.045Z,5.60
2019-06-08T13:22:28.353Z,5.00
2019-06-08T13:24:52.972Z,6.15
2019-06-08T13:27:22.826Z,6.25
2019-06-08T13:29:48.931Z,14.63
2019-06-08T13:32:16.569Z,9.15
2019-06-08T13:34:44.387Z,9.65
2019-06-08T13:37:12.451Z,7.12
2019-06-08T13:39:39.150Z,7.45
2019-06-08T13:42:07.750Z,6.10
2019-06-08T13:44:34.471Z,7.20
2019-06-08T13:47:01.001Z,15.28
2019-06-08T13:49:30.822Z,12.10
2019-06-08T13:51:58.358Z,7.92
2019-06-08T13:54:25.347Z,7.25
2019-06-08T13:56:51.928Z,7.83
2019-06-08T13:59:23.107Z,8.18
2019-06-08T14:01:47.825Z,8.55
2019-06-08T14:04:15.181Z,13.78
2019-06-08T14:06:42.003Z,11.97
2019-06-08T14:09:08.967Z,10.08
2019-06-08T14:11:35.643Z,8.45
2019-06-08T14:14:02.605Z,9.13
2019-06-08T14:16:29.891Z,9.43
2019-06-08T14:18:56.741Z,8.35
2019-06-08T14:21:34.163Z,12.70
2019-06-08T14:23:51.869Z,9.63
2019-06-08T14:26:20.123Z,10.55
2019-06-08T14:28:50.286Z,12.07
2019-06-08T14:31:18.677Z,11.50
2019-06-08T14:33:44.635Z,13.95
2019-06-08T14:36:11.091Z,10.28
2019-06-08T14:38:41.794Z,9.73
2019-06-08T14:41:07.628Z,11.97
2019-06-08T14:43:34.502Z,10.63
2019-06-08T14:46:00.973Z,9.23
2019-06-08T14:48:32.107Z,9.05
2019-06-08T14:50:58.260Z,10.58
2019-06-08T14:53:24.681Z,10.48
2019-06-08T14:56:04.912Z,11.18
2019-06-08T14:58:25.107Z,10.18
2019-06-08T15:00:48.255Z,10.05
2019-06-08T15:03:14.875Z,11.43
2019-06-08T15:05:44.076Z,11.53
2019-06-08T15:08:11.821Z,10.80
2019-06-08T15:10:38.843Z,12.28
2019-06-08T15:13:07.707Z,13.32
2019-06-08T15:15:34.497Z,11.50
2019-06-08T15:18:04.221Z,12.05
2019-06-08T15:20:30.373Z,16.37
2019-06-08T15:22:58.895Z,16.10
2019-06-08T15:25:26.658Z,9.18
2019-06-08T15:27:54.364Z,9.80
2019-06-08T15:30:21.668Z,8.13
2019-06-08T15:32:48.723Z,7.70
2019-06-08T15:35:18.053Z,7.28
2019-06-08T15:37:44.152Z,7.55
2019-06-08T15:40:11.429Z,6.05
2019-06-08T15:42:38.277Z,6.15
2019-06-08T15:45:05.255Z,5.50
2019-06-08T15:47:32.440Z,5.67
2019-06-08T15:49:59.416Z,5.40
2019-06-08T15:52:27.155Z,5.10
2019-06-08T15:54:58.856Z,5.53
2019-06-08T15:57:24.633Z,4.70
2019-06-08T15:59:51.501Z,4.50
2019-06-08T16:02:18.397Z,3.80
2019-06-08T16:04:45.313Z,5.03
2019-06-08T16:07:12.123Z,4.58
2019-06-08T16:09:38.765Z,4.00
2019-06-08T16:12:06.218Z,4.05
2019-06-08T16:14:32.881Z,4.78
2019-06-08T16:16:59.597Z,6.83
2019-06-08T16:19:27.405Z,3.83
2019-06-08T16:21:54.314Z,3.58
2019-06-08T16:24:20.965Z,3.75
2019-06-08T16:26:53.375Z,3.62
2019-06-08T16:29:16.564Z,3.75
2019-06-08T16:31:43.359Z,4.00
2019-06-08T16:34:10.158Z,3.55
2019-06-08T16:36:36.786Z,4.17
2019-06-08T16:39:06.957Z,4.35
2019-06-08T16:41:33.980Z,3.75
2019-06-08T16:44:00.707Z,3.80
2019-06-08T16:46:27.915Z,6.30
2019-06-08T16:48:54.636Z,3.80
2019-06-08T16:51:21.118Z,3.30
2019-06-08T16:53:47.649Z,3.95
2019-06-08T16:56:14.262Z,3.33
2019-06-08T16:58:40.720Z,3.30
2019-06-08T17:01:07.422Z,3.50
2019-06-08T17:03:34.867Z,3.65
2019-06-08T17:06:01.682Z,3.40
2019-06-08T17:08:29.480Z,4.10
2019-06-08T17:10:56.074Z,3.72
2019-06-08T17:13:23.148Z,3.27
2019-06-08T17:15:49.853Z,4.47
2019-06-08T17:18:16.383Z,4.90
2019-06-08T17:20:43.880Z,3.52
2019-06-08T17:23:11.302Z,3.37
2019-06-08T17:25:38.754Z,3.37
2019-06-08T17:28:06.789Z,3.12
2019-06-08T17:30:35.453Z,3.05
2019-06-08T17:33:02.312Z,4.90
2019-06-08T17:35:28.900Z,7.83
2019-06-08T17:37:55.499Z,14.00
2019-06-08T17:40:22.323Z,5.33
2019-06-08T17:42:48.787Z,3.10
2019-06-08T17:45:15.932Z,3.20
2019-06-08T17:47:42.837Z,3.33
2019-06-08T17:50:10.905Z,4.50
2019-06-08T17:52:38.799Z,3.25
2019-06-08T17:55:06.382Z,3.58
2019-06-08T17:57:43.511Z,3.95
2019-06-08T18:00:01.741Z,3.83
2019-06-08T18:02:31.203Z,4.53
2019-06-08T18:04:57.954Z,6.83
2019-06-08T18:07:24.780Z,5.45
2019-06-08T18:09:51.512Z,3.98
2019-06-08T18:12:18.715Z,3.92
2019-06-08T18:14:47.829Z,3.47
2019-06-08T18:17:14.160Z,4.33
2019-06-08T18:19:43.639Z,3.75
2019-06-08T18:22:15.409Z,5.28
2019-06-08T18:24:40.887Z,4.50
2019-06-08T18:27:07.757Z,4.60
2019-06-08T18:29:34.625Z,4.15
2019-06-08T18:32:01.618Z,4.55
2019-06-08T18:34:28.981Z,4.33
2019-06-08T18:36:57.867Z,4.97
2019-06-08T18:39:27.354Z,3.85
2019-06-08T18:41:54.233Z,4.45
2019-06-08T18:44:21.011Z,4.55
2019-06-08T18:46:48.254Z,4.05
2019-06-08T18:49:15.181Z,4.42
2019-06-08T18:51:42.797Z,4.75
2019-06-08T18:54:14.634Z,4.00
2019-06-08T18:56:41.830Z,4.60
2019-06-08T18:59:07.879Z,4.62
2019-06-08T19:01:34.614Z,4.00
2019-06-08T19:04:01.309Z,4.25
2019-06-08T19:06:28.173Z,4.35
2019-06-08T19:08:54.984Z,4.70
2019-06-08T19:11:23.067Z,4.47
2019-06-08T19:13:52.035Z,5.10
2019-06-08T19:16:19.256Z,4.40
2019-06-08T19:18:49.815Z,5.70
2019-06-08T19:21:17.681Z,9.05
2019-06-08T19:23:44.886Z,4.85
2019-06-08T19:26:13.311Z,7.17
2019-06-08T19:28:44.972Z,5.25
2019-06-08T19:31:10.355Z,4.90
2019-06-08T19:33:37.462Z,5.78
2019-06-08T19:36:07.642Z,6.62
2019-06-08T19:38:34.002Z,8.55
2019-06-08T19:41:00.472Z,5.70
2019-06-08T19:43:27.777Z,4.83
2019-06-08T19:45:57.825Z,5.17
2019-06-08T19:48:27.404Z,4.83
2019-06-08T19:50:54.356Z,4.90
2019-06-08T19:53:21.210Z,5.12
2019-06-08T19:55:52.035Z,5.30
2019-06-08T19:58:18.062Z,5.42
2019-06-08T20:00:50.846Z,6.35
2019-06-08T20:03:13.888Z,5.28
2019-06-08T20:05:41.239Z,6.12
2019-06-08T20:08:08.426Z,6.45
2019-06-08T20:10:35.324Z,8.25
2019-06-08T20:13:03.886Z,17.40
2019-06-08T20:15:30.589Z,5.17
2019-06-08T20:17:57.620Z,4.33
2019-06-08T20:20:24.276Z,5.03
2019-06-08T20:22:53.483Z,4.70
2019-06-08T20:25:19.957Z,7.53
2019-06-08T20:27:49.770Z,6.15
2019-06-08T20:30:17.422Z,4.87
2019-06-08T20:32:44.498Z,4.87
2019-06-08T20:35:11.369Z,4.12
2019-06-08T20:37:38.152Z,4.55
2019-06-08T20:40:11.193Z,4.67
2019-06-08T20:42:33.915Z,3.98
2019-06-08T20:45:01.811Z,4.35
2019-06-08T20:47:28.316Z,4.78
2019-06-08T20:49:54.991Z,4.47
2019-06-08T20:52:22.934Z,4.67
2019-06-08T20:54:51.786Z,4.83
2019-06-08T20:57:18.494Z,5.10
2019-06-08T20:59:45.682Z,4.55
2019-06-08T21:02:12.724Z,5.53
2019-06-08T21:04:39.865Z,4.80
2019-06-08T21:07:08.191Z,4.80
2019-06-08T21:09:37.131Z,4.22
2019-06-08T21:12:04.123Z,4.75
2019-06-08T21:14:30.738Z,5.00
2019-06-08T21:16:59.137Z,4.87
2019-06-08T21:19:27.941Z,4.62
2019-06-08T21:21:55.050Z,4.78
2019-06-08T21:24:22.727Z,5.08
2019-06-08T21:26:52.533Z,4.72
2019-06-08T21:29:17.918Z,4.85
2019-06-08T21:31:49.013Z,7.47
2019-06-08T21:34:13.826Z,5.28
2019-06-08T21:36:40.512Z,5.35
2019-06-08T21:39:08.271Z,4.80
2019-06-08T21:41:37.165Z,4.92
2019-06-08T21:44:04.947Z,4.78
2019-06-08T21:46:31.852Z,4.70
2019-06-08T21:49:00.478Z,5.40
2019-06-08T21:51:26.994Z,5.08
2019-06-08T21:53:54.176Z,5.37
2019-06-08T21:56:20.883Z,5.65
2019-06-08T21:58:49.776Z,5.08
2019-06-08T22:01:17.904Z,4.70
2019-06-08T22:03:47.051Z,4.67
2019-06-08T22:06:13.410Z,5.75
2019-06-08T22:08:40.042Z,5.53
2019-06-08T22:11:08.548Z,5.05
2019-06-08T22:13:37.452Z,8.85
2019-06-08T22:16:04.676Z,5.55
2019-06-08T22:18:31.535Z,5.60
2019-06-08T22:20:59.796Z,6.35
2019-06-08T22:23:26.623Z,5.35
2019-06-08T22:25:53.525Z,5.33
2019-06-08T22:28:21.473Z,5.40
2019-06-08T22:30:48.369Z,5.97
2019-06-08T22:33:17.567Z,5.40
2019-06-08T22:35:44.981Z,5.25
2019-06-08T22:38:11.479Z,5.35
2019-06-08T22:40:38.666Z,5.20
2019-06-08T22:43:07.822Z,5.28
2019-06-08T22:45:34.023Z,4.80
2019-06-08T22:48:02.201Z,6.15
2019-06-08T22:50:29.287Z,5.15
2019-06-08T22:52:59.310Z,5.05
2019-06-08T22:55:24.793Z,5.17
2019-06-08T22:57:53.793Z,4.90
2019-06-08T23:00:22.762Z,5.05
2019-06-08T23:02:48.800Z,5.17
2019-06-08T23:05:15.454Z,5.22
2019-06-08T23:07:41.968Z,4.65
2019-06-08T23:10:09.751Z,4.30
2019-06-08T23:12:38.189Z,4.92
2019-06-08T23:15:07.802Z,4.85
2019-06-08T23:17:34.841Z,4.85
2019-06-08T23:20:01.991Z,4.72
2019-06-08T23:22:28.919Z,5.78
2019-06-08T23:24:59.535Z,5.50
2019-06-08T23:27:27.139Z,5.42
2019-06-08T23:29:54.264Z,5.97
2019-06-08T23:32:20.865Z,5.40
2019-06-08T23:34:49.056Z,5.22
2019-06-08T23:37:18.282Z,6.58
2019-06-08T23:39:47.094Z,6.00
2019-06-08T23:42:13.836Z,5.92
2019-06-08T23:44:40.450Z,6.20
2019-06-08T23:47:08.143Z,6.28
2019-06-08T23:49:34.976Z,6.35
2019-06-08T23:52:02.760Z,6.62
2019-06-08T23:54:30.462Z,6.95
2019-06-08T23:57:00.080Z,7.40
2019-06-08T23:59:27.992Z,7.25
